Time;durP1;ratioP1;P1;durP2;ratioP2;P2;SDS_P1;SDS_P2;PMS_P1;PMS_P2;Temp;Humidity;BMP_temperature;BMP_pressure;BME280_temperature;BME280_humidity;BME280_pressure;Samples;Min_cycle;Max_cycle;Signal;HPM_P1;HPM_P2
2024/01/31 00:00:32;;;;;;;18.70;17.13;;;7.00;99.90;;;;;;5042557;28;20199;-79
2024/01/31 00:02:59;;;;;;;18.43;16.73;;;6.90;99.90;;;;;;5036405;28;20645;-79
2024/01/31 00:05:26;;;;;;;16.87;15.47;;;6.90;99.90;;;;;;5045498;28;20250;-79
2024/01/31 00:07:53;;;;;;;16.60;15.27;;;6.90;99.90;;;;;;5038147;28;20675;-79
2024/01/31 00:10:20;;;;;;;18.90;17.20;;;6.90;99.90;;;;;;5048781;28;20203;-79
2024/01/31 00:12:47;;;;;;;18.33;16.77;;;6.90;99.90;;;;;;5040663;28;20219;-79
2024/01/31 00:15:16;;;;;;;18.33;16.83;;;6.80;99.90;;;;;;5042577;28;20202;-79
2024/01/31 00:17:43;;;;;;;18.00;16.50;;;6.80;99.90;;;;;;5042555;28;20290;-79
2024/01/31 00:20:11;;;;;;;18.50;16.60;;;6.80;99.90;;;;;;5043986;28;20226;-79
2024/01/31 00:22:38;;;;;;;18.90;17.10;;;6.80;99.90;;;;;;5048888;28;20225;-79
2024/01/31 00:25:06;;;;;;;18.53;16.83;;;6.80;99.90;;;;;;5049788;28;20253;-79
2024/01/31 00:27:34;;;;;;;19.10;17.50;;;6.80;99.90;;;;;;5043911;28;20191;-79
2024/01/31 00:30:01;;;;;;;17.73;16.30;;;6.70;99.90;;;;;;5048391;28;20218;-79
2024/01/31 00:32:28;;;;;;;18.40;16.80;;;6.80;99.90;;;;;;5047022;28;20215;-79
2024/01/31 00:34:54;;;;;;;17.83;16.27;;;6.80;99.90;;;;;;5043194;28;20203;-79
2024/01/31 00:37:21;;;;;;;17.33;16.00;;;6.70;99.90;;;;;;5048117;28;20198;-79
2024/01/31 00:39:48;;;;;;;18.80;17.13;;;6.70;99.90;;;;;;5048293;28;20219;-79
2024/01/31 00:42:15;;;;;;;17.87;16.47;;;6.70;99.90;;;;;;5051723;28;20199;-78
2024/01/31 00:44:43;;;;;;;17.70;16.30;;;6.70;99.90;;;;;;5036504;28;20206;-79
2024/01/31 00:47:10;;;;;;;18.20;16.70;;;6.70;99.90;;;;;;5042341;28;20203;-79
2024/01/31 00:49:37;;;;;;;17.80;16.27;;;6.70;99.90;;;;;;5044055;28;20648;-79
2024/01/31 00:52:05;;;;;;;17.83;16.33;;;6.70;99.90;;;;;;5049128;28;20203;-79
2024/01/31 00:54:32;;;;;;;18.93;17.33;;;6.80;99.90;;;;;;5047859;28;20725;-79
2024/01/31 00:56:58;;;;;;;18.60;17.03;;;6.80;99.90;;;;;;5050181;28;20199;-79
2024/01/31 00:59:25;;;;;;;17.47;16.07;;;6.80;99.90;;;;;;5049947;28;20234;-79
2024/01/31 01:01:54;;;;;;;17.37;16.07;;;6.80;99.90;;;;;;5048968;28;20241;-79
2024/01/31 01:04:20;;;;;;;18.53;16.83;;;6.80;99.90;;;;;;5047822;28;20281;-79
2024/01/31 01:06:47;;;;;;;19.13;17.40;;;6.80;99.90;;;;;;5041791;28;20253;-79
2024/01/31 01:09:14;;;;;;;18.57;16.97;;;6.80;99.90;;;;;;5043366;28;20272;-79
2024/01/31 01:11:41;;;;;;;17.77;16.17;;;6.80;99.90;;;;;;5043585;28;20202;-79
2024/01/31 01:14:07;;;;;;;18.53;17.03;;;6.80;99.90;;;;;;5045547;28;20226;-79
2024/01/31 01:16:34;;;;;;;17.90;16.30;;;6.80;99.90;;;;;;5046803;28;20257;-79
2024/01/31 01:19:04;;;;;;;17.83;16.43;;;6.90;99.90;;;;;;5046267;28;20654;-79
2024/01/31 01:21:31;;;;;;;18.17;16.77;;;6.90;99.90;;;;;;5038331;28;20271;-79
2024/01/31 01:23:58;;;;;;;17.67;16.23;;;6.90;99.90;;;;;;5040251;28;20199;-79
2024/01/31 01:26:25;;;;;;;18.07;16.57;;;6.90;99.90;;;;;;5044450;28;20257;-79
2024/01/31 01:28:52;;;;;;;18.30;16.77;;;6.90;99.90;;;;;;5045715;28;20215;-79
2024/01/31 01:31:19;;;;;;;17.93;16.43;;;6.90;99.90;;;;;;5045864;28;20231;-79
2024/01/31 01:33:46;;;;;;;19.63;18.00;;;6.90;99.90;;;;;;5038889;28;20251;-79
2024/01/31 01:36:15;;;;;;;19.93;18.23;;;6.90;99.90;;;;;;5044714;28;20200;-79
2024/01/31 01:38:42;;;;;;;19.37;17.67;;;6.90;99.90;;;;;;5046031;28;20349;-79
2024/01/31 01:41:09;;;;;;;19.00;17.30;;;6.90;99.90;;;;;;5047598;28;20195;-79
2024/01/31 01:43:35;;;;;;;18.93;17.30;;;7.00;99.90;;;;;;5038894;28;20241;-79
2024/01/31 01:46:10;;;;;;;19.07;17.47;;;6.90;99.90;;;;;;5049947;28;20196;-79
2024/01/31 01:48:38;;;;;;;19.60;18.00;;;6.90;99.90;;;;;;5029548;28;20310;-79
2024/01/31 01:51:05;;;;;;;18.10;16.57;;;6.90;99.90;;;;;;5032772;28;20570;-79
2024/01/31 01:53:36;;;;;;;21.23;19.33;;;6.90;99.90;;;;;;5033759;28;20751;-79
2024/01/31 01:56:03;;;;;;;20.80;19.10;;;7.00;99.90;;;;;;5039978;28;20208;-79
2024/01/31 01:58:31;;;;;;;19.60;17.90;;;7.00;99.90;;;;;;5048107;28;20214;-79
2024/01/31 02:00:59;;;;;;;19.00;17.33;;;7.00;99.90;;;;;;5038945;28;20207;-79
2024/01/31 02:03:27;;;;;;;18.73;17.10;;;7.00;99.90;;;;;;5047038;28;20293;-79
2024/01/31 02:05:54;;;;;;;18.13;16.63;;;7.00;99.90;;;;;;5038673;28;20235;-79
2024/01/31 02:08:21;;;;;;;18.30;16.80;;;7.10;99.90;;;;;;5046128;28;20642;-79
2024/01/31 02:10:49;;;;;;;19.87;17.87;;;7.10;99.90;;;;;;5041856;28;20199;-79
2024/01/31 02:13:16;;;;;;;18.07;16.60;;;7.10;99.90;;;;;;5042132;28;20211;-79
2024/01/31 02:15:51;;;;;;;19.00;17.33;;;7.00;99.90;;;;;;5034976;28;20238;-79
2024/01/31 02:18:18;;;;;;;18.90;17.30;;;7.10;99.90;;;;;;5047721;28;20223;-79
2024/01/31 02:20:45;;;;;;;18.23;16.53;;;7.00;99.90;;;;;;5047410;28;20222;-79
2024/01/31 02:23:14;;;;;;;17.80;16.30;;;7.10;99.90;;;;;;5049257;28;20211;-79
2024/01/31 02:25:41;;;;;;;18.00;16.50;;;7.10;99.90;;;;;;5038188;28;20238;-79
2024/01/31 02:28:08;;;;;;;19.07;17.47;;;7.00;99.90;;;;;;5034401;28;20577;-79
2024/01/31 02:30:34;;;;;;;18.37;16.80;;;7.10;99.90;;;;;;5043292;28;20249;-79
2024/01/31 02:33:01;;;;;;;18.47;16.87;;;7.10;99.90;;;;;;5037664;28;20204;-79
2024/01/31 02:35:28;;;;;;;17.80;16.20;;;7.10;99.90;;;;;;5035887;28;20776;-79
2024/01/31 02:37:57;;;;;;;17.37;15.97;;;7.10;99.90;;;;;;5035904;28;20207;-79
2024/01/31 02:40:25;;;;;;;17.90;16.33;;;7.10;99.90;;;;;;5047216;28;20323;-79
2024/01/31 02:42:52;;;;;;;17.27;15.77;;;7.10;99.90;;;;;;5046265;28;20225;-79
2024/01/31 02:45:19;;;;;;;17.90;16.07;;;7.10;99.90;;;;;;5041199;28;20238;-79
2024/01/31 02:47:46;;;;;;;16.73;15.43;;;7.10;99.90;;;;;;5038854;28;20345;-79
2024/01/31 02:50:13;;;;;;;16.63;15.43;;;7.20;99.90;;;;;;5033980;28;20223;-80
2024/01/31 02:52:40;;;;;;;16.37;14.97;;;7.20;99.90;;;;;;5036233;28;20195;-79
2024/01/31 02:55:08;;;;;;;15.87;14.67;;;7.20;99.90;;;;;;5038574;28;20226;-79
2024/01/31 02:57:36;;;;;;;16.53;15.23;;;7.20;99.90;;;;;;5044498;28;20219;-79
2024/01/31 03:00:04;;;;;;;17.23;15.83;;;7.20;99.90;;;;;;5039599;28;20227;-79
2024/01/31 03:02:30;;;;;;;16.83;15.60;;;7.20;99.90;;;;;;5040414;28;20206;-79
2024/01/31 03:04:57;;;;;;;16.90;15.60;;;7.20;99.90;;;;;;5038124;28;20200;-79
2024/01/31 03:07:24;;;;;;;16.30;15.13;;;7.20;99.90;;;;;;5039772;28;20199;-79
2024/01/31 03:09:51;;;;;;;15.80;14.60;;;7.20;99.90;;;;;;5047023;28;20218;-79
2024/01/31 03:12:17;;;;;;;17.23;15.80;;;7.30;99.90;;;;;;5041253;28;20275;-79
2024/01/31 03:14:46;;;;;;;17.10;15.80;;;7.20;99.90;;;;;;5036925;28;20238;-79
2024/01/31 03:17:12;;;;;;;18.77;17.17;;;7.20;99.90;;;;;;5045754;28;20227;-79
2024/01/31 03:19:40;;;;;;;17.40;15.90;;;7.20;99.90;;;;;;5034329;28;20234;-79
2024/01/31 03:22:08;;;;;;;16.70;15.40;;;7.30;99.90;;;;;;5048743;28;20223;-79
2024/01/31 03:24:35;;;;;;;17.67;16.23;;;7.30;99.90;;;;;;5044889;28;20205;-79
2024/01/31 03:27:03;;;;;;;16.87;15.47;;;7.30;99.90;;;;;;5043459;28;20195;-79
2024/01/31 03:29:30;;;;;;;16.47;15.17;;;7.30;99.90;;;;;;5045069;28;20216;-79
2024/01/31 03:31:58;;;;;;;16.77;15.47;;;7.30;99.90;;;;;;5042476;28;20294;-79
2024/01/31 03:34:25;;;;;;;16.50;15.23;;;7.30;99.90;;;;;;5046762;28;20247;-79
2024/01/31 03:36:53;;;;;;;17.40;16.00;;;7.30;99.90;;;;;;5043034;28;20199;-79
2024/01/31 03:39:20;;;;;;;16.27;15.07;;;7.30;99.90;;;;;;5046629;28;20238;-79
2024/01/31 03:41:49;;;;;;;16.77;15.37;;;7.30;99.90;;;;;;5045320;28;20231;-81
2024/01/31 03:44:16;;;;;;;16.90;15.60;;;7.30;99.90;;;;;;5041388;28;20223;-79
2024/01/31 03:46:43;;;;;;;16.27;14.97;;;7.30;99.90;;;;;;5045551;28;20285;-79
2024/01/31 03:49:11;;;;;;;16.57;15.37;;;7.30;99.90;;;;;;5036841;28;20219;-79
2024/01/31 03:51:40;;;;;;;17.63;16.23;;;7.30;99.90;;;;;;5041224;28;20294;-80
2024/01/31 03:54:06;;;;;;;17.77;16.40;;;7.20;99.90;;;;;;5029163;28;20211;-82
2024/01/31 03:56:33;;;;;;;17.07;15.77;;;7.20;99.90;;;;;;5038245;28;20198;-82
2024/01/31 03:59:02;;;;;;;16.90;15.60;;;7.20;99.90;;;;;;5029281;28;20220;-81
2024/01/31 04:01:29;;;;;;;16.83;15.63;;;7.10;99.90;;;;;;5037903;28;20210;-81
2024/01/31 04:03:56;;;;;;;17.10;15.80;;;7.20;99.90;;;;;;5026662;28;20195;-81
2024/01/31 04:06:24;;;;;;;16.07;14.87;;;7.20;99.90;;;;;;5027721;28;20231;-80
2024/01/31 04:08:50;;;;;;;16.10;14.90;;;7.20;99.90;;;;;;5031115;28;20223;-80
2024/01/31 04:11:17;;;;;;;16.57;15.37;;;7.20;99.90;;;;;;5030415;28;20234;-81
2024/01/31 04:13:50;;;;;;;16.80;15.50;;;7.20;99.90;;;;;;5039087;28;20220;-78
2024/01/31 04:16:17;;;;;;;16.47;15.27;;;7.20;99.90;;;;;;5044737;28;20650;-80
2024/01/31 04:18:44;;;;;;;17.90;16.50;;;7.10;99.90;;;;;;5040043;28;20257;-79
2024/01/31 04:21:11;;;;;;;17.20;15.90;;;7.10;99.90;;;;;;5025559;28;20200;-80
2024/01/31 04:23:39;;;;;;;17.30;15.80;;;7.00;99.90;;;;;;5035940;28;20200;-80
2024/01/31 04:26:06;;;;;;;17.63;16.23;;;6.90;99.90;;;;;;5041959;28;20257;-81
2024/01/31 04:28:33;;;;;;;16.77;15.53;;;6.80;99.90;;;;;;5044021;28;20246;-81
2024/01/31 04:30:59;;;;;;;17.63;16.23;;;6.80;99.90;;;;;;5044121;28;20207;-81
2024/01/31 04:33:26;;;;;;;17.37;16.03;;;6.80;99.90;;;;;;5033946;28;20207;-80
2024/01/31 04:35:58;;;;;;;17.70;16.30;;;6.80;99.90;;;;;;5040954;28;20227;-83
2024/01/31 04:38:25;;;;;;;17.53;16.03;;;6.80;99.90;;;;;;5045728;28;20249;-79
2024/01/31 04:40:53;;;;;;;19.60;17.60;;;6.80;99.90;;;;;;5044768;28;20191;-79
2024/01/31 04:43:20;;;;;;;17.90;16.53;;;6.70;99.90;;;;;;5039480;28;20204;-79
2024/01/31 04:45:47;;;;;;;17.53;16.13;;;6.70;99.90;;;;;;5049219;28;20252;-79
2024/01/31 04:48:13;;;;;;;17.80;16.40;;;6.70;99.90;;;;;;5030017;28;20247;-84
2024/01/31 04:50:40;;;;;;;16.53;15.33;;;6.70;99.90;;;;;;5041689;28;20196;-78
2024/01/31 04:53:07;;;;;;;18.30;16.87;;;6.70;99.90;;;;;;5036601;28;20674;-78
2024/01/31 04:55:34;;;;;;;17.00;15.70;;;6.70;99.90;;;;;;5049949;28;20258;-78
2024/01/31 04:58:02;;;;;;;17.93;16.50;;;6.70;99.90;;;;;;5036903;28;20246;-78
2024/01/31 05:00:29;;;;;;;17.33;16.03;;;6.70;99.90;;;;;;5042887;28;20257;-78
2024/01/31 05:02:55;;;;;;;17.20;15.90;;;6.70;99.90;;;;;;5044336;28;20204;-78
2024/01/31 05:05:22;;;;;;;17.47;16.17;;;6.80;99.90;;;;;;5042064;28;20674;-79
2024/01/31 05:07:49;;;;;;;17.50;16.17;;;6.80;99.90;;;;;;5039953;28;20199;-78
2024/01/31 05:10:16;;;;;;;18.27;16.77;;;6.80;99.90;;;;;;5034305;28;20247;-79
2024/01/31 05:12:42;;;;;;;18.23;16.73;;;6.80;99.90;;;;;;5048864;28;20218;-79
2024/01/31 05:15:11;;;;;;;18.93;17.33;;;6.80;99.90;;;;;;5041617;28;20566;-78
2024/01/31 05:17:37;;;;;;;19.30;17.80;;;6.80;99.90;;;;;;5040501;28;20215;-78
2024/01/31 05:20:05;;;;;;;19.20;17.60;;;6.80;99.90;;;;;;5049105;28;20222;-79
2024/01/31 05:22:32;;;;;;;18.67;17.17;;;6.80;99.90;;;;;;5043184;28;20733;-78
2024/01/31 05:24:59;;;;;;;18.00;16.60;;;6.80;99.90;;;;;;5048885;28;20631;-78
2024/01/31 05:27:25;;;;;;;18.80;17.23;;;6.80;99.90;;;;;;5039502;28;20620;-78
2024/01/31 05:29:52;;;;;;;19.27;17.73;;;6.80;99.90;;;;;;5052775;28;20721;-78
2024/01/31 05:32:20;;;;;;;19.23;17.77;;;6.80;99.90;;;;;;5047587;28;20331;-78
2024/01/31 05:34:48;;;;;;;18.17;16.77;;;6.90;99.90;;;;;;5043950;28;20261;-78
2024/01/31 05:37:15;;;;;;;17.97;16.53;;;6.90;99.90;;;;;;5048457;28;20234;-78
2024/01/31 05:39:42;;;;;;;18.10;16.70;;;6.90;99.90;;;;;;5043724;28;20266;-78
2024/01/31 05:42:08;;;;;;;17.97;16.57;;;6.90;99.90;;;;;;5041265;28;20207;-79
2024/01/31 05:44:35;;;;;;;18.53;16.93;;;6.90;99.90;;;;;;5043674;28;20196;-78
2024/01/31 05:47:02;;;;;;;19.53;17.93;;;6.80;99.90;;;;;;5052008;28;20390;-79
2024/01/31 05:49:30;;;;;;;18.17;16.77;;;6.80;99.90;;;;;;5034921;28;20233;-78
2024/01/31 05:51:57;;;;;;;18.50;16.97;;;6.80;99.90;;;;;;5052655;28;20195;-79
2024/01/31 05:54:24;;;;;;;18.60;17.10;;;6.80;99.90;;;;;;5042232;28;20203;-79
2024/01/31 05:56:51;;;;;;;19.13;17.67;;;6.80;99.90;;;;;;5044404;28;20226;-79
2024/01/31 05:59:18;;;;;;;23.70;18.20;;;6.80;99.90;;;;;;5044275;28;20639;-80
2024/01/31 06:01:44;;;;;;;19.93;18.43;;;6.80;99.90;;;;;;5035103;28;20223;-78
2024/01/31 06:04:11;;;;;;;19.70;18.10;;;6.80;99.90;;;;;;5038183;28;20581;-77
2024/01/31 06:06:39;;;;;;;19.67;18.07;;;6.80;99.90;;;;;;5041550;28;20208;-78
2024/01/31 06:09:06;;;;;;;21.57;19.37;;;6.80;99.90;;;;;;5035855;28;20220;-78
2024/01/31 06:11:33;;;;;;;21.50;19.60;;;6.80;99.90;;;;;;5046329;28;20267;-78
2024/01/31 06:14:00;;;;;;;20.03;18.33;;;6.80;99.90;;;;;;5044855;28;20297;-78
2024/01/31 06:16:26;;;;;;;20.80;18.80;;;6.80;99.90;;;;;;5047932;28;20211;-78
2024/01/31 06:18:53;;;;;;;19.63;18.13;;;6.90;99.90;;;;;;5045328;28;20291;-79
2024/01/31 06:21:20;;;;;;;19.70;18.00;;;6.90;99.90;;;;;;5049952;28;20685;-79
2024/01/31 06:23:48;;;;;;;21.07;19.30;;;6.90;99.90;;;;;;5032000;28;20246;-78
2024/01/31 06:26:15;;;;;;;20.57;18.70;;;6.90;99.90;;;;;;5046265;28;20281;-78
2024/01/31 06:28:42;;;;;;;19.53;17.90;;;6.90;99.90;;;;;;5032371;28;20706;-79
2024/01/31 06:31:16;;;;;;;19.93;18.20;;;6.90;99.90;;;;;;5043249;28;20627;-79
2024/01/31 06:33:43;;;;;;;19.03;17.53;;;6.80;99.90;;;;;;5044670;28;20622;-79
2024/01/31 06:36:10;;;;;;;18.83;17.30;;;6.80;99.90;;;;;;5048664;28;20219;-79
2024/01/31 06:38:36;;;;;;;19.43;17.83;;;6.80;99.90;;;;;;5042800;28;20736;-79
2024/01/31 06:41:05;;;;;;;18.53;17.03;;;6.80;99.90;;;;;;5043970;28;20199;-79
2024/01/31 06:43:31;;;;;;;18.80;17.30;;;6.90;99.90;;;;;;5043789;28;20289;-78
2024/01/31 06:45:58;;;;;;;19.07;17.57;;;6.90;99.90;;;;;;5036130;28;20200;-78
2024/01/31 06:48:25;;;;;;;19.13;17.63;;;6.90;99.90;;;;;;5048155;28;20222;-79
2024/01/31 06:50:52;;;;;;;18.27;16.73;;;6.90;99.90;;;;;;5038436;28;20191;-79
2024/01/31 06:53:18;;;;;;;17.20;15.90;;;6.90;99.90;;;;;;5050304;28;20736;-79
2024/01/31 06:55:45;;;;;;;18.07;16.57;;;6.90;99.90;;;;;;5045368;28;20617;-78
2024/01/31 06:58:13;;;;;;;18.17;16.77;;;6.90;99.90;;;;;;5043522;28;20275;-79
2024/01/31 07:00:40;;;;;;;17.50;16.20;;;6.90;99.90;;;;;;5046918;28;20256;-78
2024/01/31 07:03:08;;;;;;;17.77;16.37;;;6.90;99.90;;;;;;5038088;28;20294;-78
2024/01/31 07:05:35;;;;;;;19.53;17.93;;;6.90;99.90;;;;;;5039333;28;20187;-77
2024/01/31 07:08:01;;;;;;;19.07;17.37;;;6.90;99.90;;;;;;5043089;28;20202;-78
2024/01/31 07:10:28;;;;;;;19.03;17.43;;;6.80;99.90;;;;;;5039065;28;20196;-78
2024/01/31 07:12:55;;;;;;;19.10;17.40;;;6.80;99.90;;;;;;5042508;28;20199;-78
2024/01/31 07:15:23;;;;;;;19.93;18.33;;;6.80;99.90;;;;;;5043598;28;20212;-78
2024/01/31 07:17:50;;;;;;;19.83;18.27;;;6.80;99.90;;;;;;5043597;28;20188;-78
2024/01/31 07:20:18;;;;;;;19.07;17.53;;;6.80;99.90;;;;;;5043598;28;20211;-78
2024/01/31 07:22:45;;;;;;;18.20;16.60;;;6.80;99.90;;;;;;5032269;28;20262;-78
2024/01/31 07:25:13;;;;;;;18.03;16.50;;;6.80;99.90;;;;;;5051462;28;20187;-78
2024/01/31 07:27:42;;;;;;;20.20;18.30;;;6.80;99.90;;;;;;5038650;28;20199;-78
2024/01/31 07:30:11;;;;;;;18.40;16.97;;;6.80;99.90;;;;;;5047976;28;20782;-78
2024/01/31 07:32:40;;;;;;;18.30;16.80;;;6.90;99.90;;;;;;5039962;28;20204;-78
2024/01/31 07:35:08;;;;;;;22.00;19.97;;;6.90;99.90;;;;;;5042880;28;20218;-78
2024/01/31 07:37:36;;;;;;;20.97;19.13;;;6.90;99.90;;;;;;5038179;28;20196;-78
2024/01/31 07:40:04;;;;;;;20.40;18.60;;;6.90;99.90;;;;;;5027828;28;20754;-77
2024/01/31 07:42:31;;;;;;;20.53;18.60;;;6.90;99.90;;;;;;5034786;28;20644;-78
2024/01/31 07:44:57;;;;;;;20.70;18.70;;;6.90;99.90;;;;;;5041616;28;20269;-78
2024/01/31 07:47:24;;;;;;;21.93;19.83;;;7.00;99.90;;;;;;5042574;28;20657;-78
2024/01/31 07:49:52;;;;;;;21.97;19.70;;;7.00;99.90;;;;;;5031265;28;20228;-78
2024/01/31 07:52:19;;;;;;;20.97;19.10;;;7.00;99.90;;;;;;5045802;28;20200;-78
2024/01/31 07:54:46;;;;;;;21.70;19.70;;;7.10;99.90;;;;;;5038805;28;20262;-78
2024/01/31 07:57:13;;;;;;;20.17;18.37;;;7.10;99.90;;;;;;5044701;28;20199;-78
2024/01/31 07:59:39;;;;;;;19.33;17.53;;;7.10;99.90;;;;;;5040873;28;20220;-78
2024/01/31 08:02:06;;;;;;;18.43;16.90;;;7.10;99.90;;;;;;5043507;28;20195;-78
2024/01/31 08:04:33;;;;;;;19.63;17.87;;;7.10;99.90;;;;;;5040206;28;20200;-77
2024/01/31 08:07:01;;;;;;;18.90;17.30;;;7.20;99.90;;;;;;5041940;28;20241;-78
2024/01/31 08:09:28;;;;;;;18.10;16.60;;;7.20;99.90;;;;;;5045937;28;20249;-78
2024/01/31 08:11:55;;;;;;;19.13;17.43;;;7.30;99.90;;;;;;5043553;28;20282;-78
2024/01/31 08:14:22;;;;;;;18.23;16.83;;;7.30;99.90;;;;;;5048322;28;20199;-78
2024/01/31 08:16:50;;;;;;;18.70;17.20;;;7.40;99.90;;;;;;5040697;28;20211;-78
2024/01/31 08:19:17;;;;;;;19.83;18.03;;;7.50;99.90;;;;;;5044955;28;20254;-78
2024/01/31 08:21:43;;;;;;;19.97;18.07;;;7.50;99.90;;;;;;5034458;28;20204;-78
2024/01/31 08:24:12;;;;;;;20.17;18.43;;;7.60;99.90;;;;;;5037627;28;20195;-78
2024/01/31 08:26:38;;;;;;;19.40;17.77;;;7.60;99.90;;;;;;5044177;28;20242;-78
2024/01/31 08:29:06;;;;;;;20.07;18.37;;;7.70;99.90;;;;;;5046998;28;20218;-79
2024/01/31 08:31:32;;;;;;;19.23;17.73;;;7.70;99.90;;;;;;5039487;28;20200;-80
2024/01/31 08:33:59;;;;;;;19.77;18.10;;;7.80;99.90;;;;;;5035755;28;20195;-80
2024/01/31 08:36:26;;;;;;;19.60;17.90;;;7.80;99.90;;;;;;5040649;28;20222;-78
2024/01/31 08:38:53;;;;;;;19.57;17.87;;;7.80;99.90;;;;;;5044262;28;20591;-78
2024/01/31 08:41:21;;;;;;;19.73;17.97;;;7.80;99.90;;;;;;5053551;28;20654;-79
2024/01/31 08:43:48;;;;;;;19.20;17.63;;;7.80;99.90;;;;;;5043938;28;20204;-79
2024/01/31 08:46:14;;;;;;;19.47;17.93;;;7.70;99.90;;;;;;5041700;28;20198;-78
2024/01/31 08:48:41;;;;;;;19.73;18.10;;;7.70;99.90;;;;;;5045211;28;20719;-78
2024/01/31 08:51:09;;;;;;;18.57;17.07;;;7.70;99.90;;;;;;5035710;28;20199;-78
2024/01/31 08:53:36;;;;;;;19.20;17.70;;;7.70;99.90;;;;;;5049377;28;20198;-78
2024/01/31 08:56:03;;;;;;;19.53;18.00;;;7.70;99.90;;;;;;5044142;28;20258;-78
2024/01/31 08:58:31;;;;;;;19.67;17.80;;;7.70;99.90;;;;;;5050110;28;20211;-79
2024/01/31 09:00:59;;;;;;;19.97;18.03;;;7.70;99.90;;;;;;5044429;28;20203;-78
2024/01/31 09:03:26;;;;;;;19.30;17.77;;;7.70;99.90;;;;;;5045037;28;20199;-78
2024/01/31 09:05:53;;;;;;;20.30;18.53;;;7.70;99.90;;;;;;5046147;28;20630;-78
2024/01/31 09:08:20;;;;;;;19.47;17.97;;;7.80;99.90;;;;;;5049999;28;20226;-78
2024/01/31 09:10:47;;;;;;;19.33;17.73;;;7.80;99.90;;;;;;5048520;28;20191;-78
2024/01/31 09:13:14;;;;;;;18.10;16.70;;;8.00;99.90;;;;;;5043106;28;20227;-78
2024/01/31 09:15:42;;;;;;;18.27;16.87;;;8.10;99.90;;;;;;5041059;28;20721;-78
2024/01/31 09:18:09;;;;;;;17.30;15.80;;;8.20;99.90;;;;;;5034945;28;20203;-78
2024/01/31 09:20:42;;;;;;;17.37;16.07;;;8.30;99.90;;;;;;5048406;28;20481;-79
2024/01/31 09:23:08;;;;;;;17.37;15.97;;;8.40;99.90;;;;;;5035378;28;20199;-78
2024/01/31 09:25:35;;;;;;;17.83;16.30;;;8.40;99.90;;;;;;5047805;28;20413;-79
2024/01/31 09:28:02;;;;;;;17.17;15.87;;;8.40;99.90;;;;;;5052054;28;20199;-78
2024/01/31 09:30:29;;;;;;;17.93;16.53;;;8.60;99.90;;;;;;5038766;28;20205;-79
2024/01/31 09:32:57;;;;;;;17.10;15.80;;;8.70;99.90;;;;;;5049735;28;20192;-78
2024/01/31 09:35:24;;;;;;;18.67;17.10;;;8.70;99.90;;;;;;5048182;28;20195;-78
2024/01/31 09:37:50;;;;;;;17.90;16.50;;;8.70;99.90;;;;;;5033347;28;20200;-78
2024/01/31 09:40:19;;;;;;;17.40;16.10;;;8.80;99.90;;;;;;5050100;28;20721;-79
2024/01/31 09:42:46;;;;;;;17.90;16.50;;;8.80;99.90;;;;;;5044294;28;20200;-80
2024/01/31 09:45:14;;;;;;;17.93;16.53;;;8.80;99.90;;;;;;5044481;28;20675;-79
2024/01/31 09:47:45;;;;;;;19.13;17.57;;;8.80;99.90;;;;;;5036540;28;20193;-79
2024/01/31 09:50:13;;;;;;;18.23;16.67;;;8.90;99.90;;;;;;5052478;28;20258;-79
2024/01/31 09:52:41;;;;;;;17.03;15.73;;;9.00;99.90;;;;;;5035648;28;20228;-79
2024/01/31 09:55:10;;;;;;;17.43;16.03;;;9.00;99.90;;;;;;5045209;28;20201;-79
2024/01/31 09:57:37;;;;;;;18.83;17.13;;;9.10;99.90;;;;;;5047059;28;20758;-79
2024/01/31 10:00:05;;;;;;;16.80;15.60;;;9.10;99.90;;;;;;5044059;28;20224;-79
2024/01/31 10:02:41;;;;;;;15.83;14.53;;;9.20;99.90;;;;;;5038803;28;20218;-79
2024/01/31 10:05:08;;;;;;;16.67;15.27;;;9.20;99.90;;;;;;5046120;28;20200;-78
2024/01/31 10:07:39;;;;;;;16.87;15.50;;;9.20;99.90;;;;;;5031466;28;20238;-81
2024/01/31 10:10:07;;;;;;;17.33;15.93;;;9.30;99.90;;;;;;5036493;28;20263;-81
2024/01/31 10:12:33;;;;;;;16.37;15.00;;;9.20;99.90;;;;;;5044478;28;20199;-79
2024/01/31 10:15:00;;;;;;;15.47;14.23;;;9.30;99.90;;;;;;5037004;28;20246;-81
2024/01/31 10:17:27;;;;;;;16.27;15.07;;;9.30;99.90;;;;;;5040244;28;20227;-81
2024/01/31 10:19:54;;;;;;;16.40;15.07;;;9.40;99.90;;;;;;5040795;28;20259;-81
2024/01/31 10:22:22;;;;;;;15.80;14.60;;;9.50;99.90;;;;;;5041605;28;20192;-81
2024/01/31 10:24:51;;;;;;;16.20;14.73;;;9.50;99.90;;;;;;5052616;28;20217;-81
2024/01/31 10:27:20;;;;;;;15.40;14.10;;;9.60;99.90;;;;;;5029498;28;20199;-81
2024/01/31 10:29:47;;;;;;;15.50;14.30;;;9.60;99.90;;;;;;5041312;28;20220;-81
2024/01/31 10:32:16;;;;;;;16.17;14.97;;;9.70;99.90;;;;;;5043704;28;20210;-81
2024/01/31 10:34:43;;;;;;;16.30;15.10;;;9.70;99.90;;;;;;5047072;28;20265;-81
2024/01/31 10:37:11;;;;;;;15.13;14.03;;;9.80;99.90;;;;;;5032260;28;20279;-81
2024/01/31 10:39:40;;;;;;;15.23;14.10;;;9.80;99.90;;;;;;5030693;28;20227;-81
2024/01/31 10:42:09;;;;;;;16.93;15.47;;;9.90;99.90;;;;;;5046478;28;20615;-81
2024/01/31 10:44:38;;;;;;;16.40;15.00;;;9.90;99.90;;;;;;5041531;28;20205;-80
2024/01/31 10:47:05;;;;;;;17.73;16.13;;;10.00;99.90;;;;;;5041588;28;20756;-80
2024/01/31 10:49:32;;;;;;;17.83;16.33;;;10.00;99.90;;;;;;5045171;28;20277;-80
2024/01/31 10:52:02;;;;;;;17.40;15.90;;;10.10;99.90;;;;;;5048498;28;20206;-79
2024/01/31 10:54:32;;;;;;;17.80;16.30;;;10.10;99.90;;;;;;5039266;28;20432;-80
2024/01/31 10:57:00;;;;;;;18.00;16.60;;;10.20;99.90;;;;;;5040350;28;20252;-79
2024/01/31 10:59:34;;;;;;;14.67;13.37;;;10.20;99.90;;;;;;5035695;28;20232;-80
2024/01/31 11:02:00;;;;;;;14.53;13.20;;;10.20;99.90;;;;;;5041779;28;20208;-79
2024/01/31 11:04:28;;;;;;;12.30;11.10;;;10.40;99.90;;;;;;5051580;28;20253;-79
2024/01/31 11:06:59;;;;;;;15.30;13.90;;;10.40;99.90;;;;;;5033698;28;20208;-81
2024/01/31 11:09:27;;;;;;;16.23;14.93;;;10.50;99.90;;;;;;5044295;28;20225;-81
2024/01/31 11:12:04;;;;;;;11.33;10.20;;;10.50;99.90;;;;;;5044014;28;20693;-81
2024/01/31 11:14:33;;;;;;;16.20;14.80;;;10.60;99.90;;;;;;5031829;28;20200;-82
2024/01/31 11:17:07;;;;;;;16.03;14.63;;;10.60;99.90;;;;;;5044082;28;20262;-81
2024/01/31 11:19:40;;;;;;;17.87;16.37;;;10.60;99.90;;;;;;5039505;28;20226;-81
2024/01/31 11:22:07;;;;;;;16.80;15.60;;;10.60;99.90;;;;;;5039790;28;20619;-81
2024/01/31 11:24:34;;;;;;;13.30;12.10;;;10.70;99.90;;;;;;5039584;28;20302;-81
2024/01/31 11:27:02;;;;;;;17.70;16.30;;;10.80;99.90;;;;;;5035371;28;20188;-81
2024/01/31 11:29:30;;;;;;;18.37;16.77;;;10.80;99.90;;;;;;5038287;28;20781;-81
2024/01/31 11:31:58;;;;;;;16.23;15.00;;;10.80;99.90;;;;;;5033228;28;20251;-81
2024/01/31 11:34:26;;;;;;;15.03;13.70;;;10.80;99.90;;;;;;5046535;28;20207;-81
2024/01/31 11:36:53;;;;;;;15.23;14.03;;;10.90;99.90;;;;;;5037826;28;20219;-81
2024/01/31 11:39:20;;;;;;;15.90;14.70;;;10.90;99.90;;;;;;5039576;28;20239;-81
2024/01/31 11:41:46;;;;;;;17.97;16.77;;;10.90;99.90;;;;;;5037382;28;20195;-80
2024/01/31 11:44:14;;;;;;;17.13;15.93;;;11.00;99.90;;;;;;5045460;28;20634;-80
2024/01/31 11:46:41;;;;;;;17.43;16.03;;;11.10;99.90;;;;;;5040503;28;20218;-80
2024/01/31 11:49:09;;;;;;;15.70;14.43;;;11.10;99.90;;;;;;5039971;28;20216;-80
2024/01/31 11:51:36;;;;;;;12.03;11.03;;;11.20;99.90;;;;;;5046353;28;20731;-80
2024/01/31 11:54:02;;;;;;;16.00;14.60;;;11.20;99.90;;;;;;5041321;28;20692;-81
2024/01/31 11:56:30;;;;;;;9.27;8.27;;;11.30;99.90;;;;;;5048621;28;20227;-80
2024/01/31 11:58:57;;;;;;;15.80;14.60;;;11.30;99.90;;;;;;5029916;28;20223;-80
2024/01/31 12:01:24;;;;;;;10.10;9.10;;;11.30;99.90;;;;;;5041715;28;20294;-80
2024/01/31 12:03:51;;;;;;;12.23;11.03;;;11.30;99.90;;;;;;5032587;28;20585;-80
2024/01/31 12:06:19;;;;;;;10.60;9.57;;;11.20;99.90;;;;;;5039831;28;20238;-80
2024/01/31 12:08:47;;;;;;;12.33;11.13;;;11.30;99.90;;;;;;5046155;28;20633;-81
2024/01/31 12:11:14;;;;;;;7.77;6.97;;;11.30;99.90;;;;;;5034523;28;20199;-80
2024/01/31 12:13:41;;;;;;;7.83;7.03;;;11.40;99.90;;;;;;5043433;28;20207;-80
2024/01/31 12:16:09;;;;;;;8.37;7.47;;;11.50;99.90;;;;;;5043323;28;20227;-80
2024/01/31 12:18:35;;;;;;;13.30;12.30;;;11.50;99.90;;;;;;5041086;28;20644;-80
2024/01/31 12:21:03;;;;;;;15.37;14.27;;;11.50;99.90;;;;;;5046418;28;20250;-80
2024/01/31 12:23:32;;;;;;;14.67;13.67;;;11.60;99.90;;;;;;5033314;28;20192;-80
2024/01/31 12:25:59;;;;;;;14.83;13.83;;;11.60;99.90;;;;;;5038009;28;20646;-81
2024/01/31 12:28:27;;;;;;;15.50;14.40;;;11.60;99.90;;;;;;5040578;28;20841;-80
2024/01/31 12:30:54;;;;;;;15.87;14.67;;;11.70;99.90;;;;;;5038911;28;20697;-80
2024/01/31 12:33:21;;;;;;;16.07;14.87;;;11.70;99.90;;;;;;5048591;28;20200;-80
2024/01/31 12:35:48;;;;;;;15.80;14.60;;;11.70;99.90;;;;;;5039213;28;20246;-81